createdAt,value
2023-03-01T00:01:22.756Z,7.55
2023-03-01T00:03:51.133Z,7.55
2023-03-01T00:06:19.860Z,7.57
2023-03-01T00:08:48.192Z,7.55
2023-03-01T00:11:19.127Z,7.55
2023-03-01T00:13:51.005Z,7.55
2023-03-01T00:16:21.490Z,7.57
2023-03-01T00:18:49.675Z,7.60
2023-03-01T00:21:17.821Z,7.61
2023-03-01T00:23:46.063Z,7.65
2023-03-01T00:26:16.019Z,7.66
2023-03-01T00:28:45.053Z,7.68
2023-03-01T00:31:17.059Z,7.70
2023-03-01T00:33:45.199Z,7.66
2023-03-01T00:36:15.161Z,7.66
2023-03-01T00:38:45.811Z,7.69
2023-03-01T00:41:16.342Z,7.70
2023-03-01T00:43:45.157Z,7.72
2023-03-01T00:46:17.572Z,7.72
2023-03-01T00:48:46.087Z,7.67
2023-03-01T00:51:16.406Z,7.67
2023-03-01T00:53:44.760Z,7.69
2023-03-01T00:56:14.719Z,7.70
2023-03-01T00:58:43.506Z,7.70
2023-03-01T01:01:18.361Z,7.70
2023-03-01T01:03:50.948Z,7.68
2023-03-01T01:06:20.683Z,7.67
2023-03-01T01:08:49.665Z,7.66
2023-03-01T01:11:18.211Z,7.66
2023-03-01T01:13:47.693Z,7.67
2023-03-01T01:16:16.626Z,7.66
2023-03-01T01:18:45.355Z,7.68
2023-03-01T01:21:17.522Z,7.69
2023-03-01T01:23:46.611Z,7.68
2023-03-01T01:26:18.991Z,7.67
2023-03-01T01:28:47.677Z,7.64
2023-03-01T01:31:16.885Z,7.61
2023-03-01T01:33:45.535Z,7.62
2023-03-01T01:36:15.146Z,7.60
2023-03-01T01:38:44.011Z,7.58
2023-03-01T01:41:13.546Z,7.61
2023-03-01T01:43:43.676Z,7.60
2023-03-01T01:46:21.662Z,7.59
2023-03-01T01:48:55.671Z,7.60
2023-03-01T01:51:28.257Z,7.61
2023-03-01T01:54:01.402Z,7.61
2023-03-01T01:56:32.014Z,7.59
2023-03-01T01:59:00.971Z,7.60
2023-03-01T02:01:29.510Z,7.61
2023-03-01T02:03:58.138Z,7.61
2023-03-01T02:06:32.813Z,7.65
2023-03-01T02:09:05.555Z,7.63
2023-03-01T02:11:38.724Z,7.62
2023-03-01T02:14:07.575Z,7.65
2023-03-01T02:16:36.314Z,7.66
2023-03-01T02:19:07.165Z,7.64
2023-03-01T02:21:49.477Z,7.64
2023-03-01T02:24:28.028Z,7.65
2023-03-01T02:26:58.944Z,7.64
2023-03-01T02:29:29.237Z,7.66
2023-03-01T02:32:00.633Z,7.65
2023-03-01T02:34:30.222Z,7.62
2023-03-01T02:37:02.218Z,7.59
2023-03-01T02:39:35.293Z,7.61
2023-03-01T02:42:06.645Z,7.64
2023-03-01T02:44:36.153Z,7.66
2023-03-01T02:47:07.198Z,7.62
2023-03-01T02:49:37.355Z,7.62
2023-03-01T02:52:25.159Z,7.58
2023-03-01T02:54:58.507Z,7.60
2023-03-01T02:57:29.592Z,7.61
2023-03-01T03:00:01.984Z,7.63
2023-03-01T03:02:41.427Z,7.62
2023-03-01T03:05:12.930Z,7.61
2023-03-01T03:07:41.649Z,7.63
2023-03-01T03:10:13.538Z,7.63
2023-03-01T03:12:42.680Z,7.63
2023-03-01T03:15:13.890Z,7.63
2023-03-01T03:17:45.258Z,7.62
2023-03-01T03:20:20.134Z,7.63
2023-03-01T03:22:49.272Z,7.63
2023-03-01T03:25:17.858Z,7.63
2023-03-01T03:27:47.879Z,7.63
2023-03-01T03:30:19.674Z,7.64
2023-03-01T03:32:53.476Z,7.61
2023-03-01T03:35:23.338Z,7.63
2023-03-01T03:38:07.397Z,7.62
2023-03-01T03:40:38.067Z,7.57
2023-03-01T03:43:07.540Z,7.59
2023-03-01T03:45:37.512Z,7.56
2023-03-01T03:48:08.978Z,7.54
2023-03-01T03:50:37.245Z,7.56
2023-03-01T03:53:08.800Z,7.54
2023-03-01T03:55:40.349Z,7.52
2023-03-01T03:58:10.840Z,7.52
2023-03-01T04:00:42.328Z,7.52
2023-03-01T04:03:10.603Z,7.50
2023-03-01T04:05:39.256Z,7.51
2023-03-01T04:08:09.160Z,7.51
2023-03-01T04:10:39.837Z,7.51
2023-03-01T04:13:09.257Z,7.51
2023-03-01T04:15:37.768Z,7.53
2023-03-01T04:18:07.751Z,7.53
2023-03-01T04:20:37.667Z,7.54
2023-03-01T04:23:14.450Z,7.53
2023-03-01T04:25:44.391Z,7.53
2023-03-01T04:28:12.751Z,7.56
2023-03-01T04:30:42.522Z,7.55
2023-03-01T04:33:12.825Z,7.54
2023-03-01T04:35:41.601Z,7.53
2023-03-01T04:38:10.725Z,7.54
2023-03-01T04:40:39.475Z,7.52
2023-03-01T04:43:07.685Z,7.52
2023-03-01T04:45:36.890Z,7.50
2023-03-01T04:48:05.851Z,7.52
2023-03-01T04:50:35.923Z,7.53
2023-03-01T04:53:04.600Z,7.52
2023-03-01T04:55:32.903Z,7.53
2023-03-01T04:58:01.260Z,7.51
2023-03-01T05:00:29.388Z,7.51
2023-03-01T05:03:00.493Z,7.52
2023-03-01T05:05:30.546Z,7.53
2023-03-01T05:08:02.084Z,7.52
2023-03-01T05:10:31.286Z,7.51
2023-03-01T05:13:00.185Z,7.50
2023-03-01T05:15:29.426Z,7.50
2023-03-01T05:18:01.329Z,7.50
2023-03-01T05:20:30.969Z,7.48
2023-03-01T05:23:06.442Z,7.49
2023-03-01T05:25:41.232Z,7.50
2023-03-01T05:28:13.919Z,7.51
2023-03-01T05:30:42.706Z,7.50
2023-03-01T05:33:14.817Z,7.51
2023-03-01T05:35:44.076Z,7.50
2023-03-01T05:38:15.291Z,7.52
2023-03-01T05:40:44.643Z,7.53
2023-03-01T05:43:13.452Z,7.53
2023-03-01T05:45:42.885Z,7.53
2023-03-01T05:48:12.302Z,7.48
2023-03-01T05:50:42.687Z,7.46
2023-03-01T05:53:15.877Z,7.45
2023-03-01T05:55:45.395Z,7.38
2023-03-01T05:58:16.271Z,7.34
2023-03-01T06:00:45.301Z,7.26
2023-03-01T06:03:15.800Z,7.17
2023-03-01T06:05:44.281Z,7.13
2023-03-01T06:08:14.729Z,7.11
2023-03-01T06:10:43.118Z,7.12
2023-03-01T06:13:11.319Z,7.15
2023-03-01T06:15:39.591Z,7.19
2023-03-01T06:18:07.845Z,7.18
2023-03-01T06:20:36.689Z,7.18
2023-03-01T06:23:05.301Z,7.20
2023-03-01T06:25:37.251Z,7.23
2023-03-01T06:28:05.594Z,7.22
2023-03-01T06:30:33.878Z,7.22
2023-03-01T06:33:02.913Z,7.22
2023-03-01T06:35:32.321Z,7.24
2023-03-01T06:38:02.144Z,7.24
2023-03-01T06:40:32.193Z,7.23
2023-03-01T06:43:01.987Z,7.22
2023-03-01T06:45:30.078Z,7.23
2023-03-01T06:48:05.083Z,7.21
2023-03-01T06:50:33.511Z,7.19
2023-03-01T06:53:02.165Z,7.15
2023-03-01T06:55:30.338Z,7.10
2023-03-01T06:57:58.683Z,7.07
2023-03-01T07:00:29.334Z,7.04
2023-03-01T07:03:00.216Z,7.02
2023-03-01T07:05:28.681Z,7.01
2023-03-01T07:07:57.469Z,7.01
2023-03-01T07:10:25.760Z,7.03
2023-03-01T07:12:57.696Z,7.08
2023-03-01T07:15:27.866Z,7.09
2023-03-01T07:17:56.442Z,7.12
2023-03-01T07:20:26.671Z,7.07
2023-03-01T07:22:55.311Z,7.07
2023-03-01T07:25:23.586Z,7.04
2023-03-01T07:27:53.077Z,7.00
2023-03-01T07:30:21.667Z,7.02
2023-03-01T07:32:51.373Z,7.04
2023-03-01T07:35:20.450Z,7.07
2023-03-01T07:37:48.764Z,7.07
2023-03-01T07:40:17.098Z,7.14
2023-03-01T07:42:45.149Z,7.13
2023-03-01T07:45:14.533Z,7.18
2023-03-01T07:47:42.742Z,7.17
2023-03-01T07:50:14.562Z,7.21
2023-03-01T07:52:42.677Z,7.20
2023-03-01T07:55:11.209Z,7.17
2023-03-01T07:57:39.388Z,7.19
2023-03-01T08:00:09.656Z,7.19
2023-03-01T08:02:37.749Z,7.23
2023-03-01T08:05:06.324Z,7.25
2023-03-01T08:07:35.981Z,7.26
2023-03-01T08:10:04.263Z,7.26
2023-03-01T08:12:32.454Z,7.27
2023-03-01T08:15:00.629Z,7.28
2023-03-01T08:17:28.884Z,7.27
2023-03-01T08:19:56.972Z,7.29
2023-03-01T08:22:25.241Z,7.25
2023-03-01T08:24:56.789Z,7.25
2023-03-01T08:27:25.623Z,7.29
2023-03-01T08:29:53.992Z,7.32
2023-03-01T08:32:22.370Z,7.35
2023-03-01T08:34:50.575Z,7.33
2023-03-01T08:37:18.866Z,7.30
2023-03-01T08:39:47.052Z,7.30
2023-03-01T08:42:16.662Z,7.31
2023-03-01T08:44:46.048Z,7.29
2023-03-01T08:47:15.263Z,7.33
2023-03-01T08:49:43.433Z,7.36
2023-03-01T08:52:11.654Z,7.28
2023-03-01T08:54:39.978Z,7.29
2023-03-01T08:57:08.170Z,7.32
2023-03-01T08:59:38.475Z,7.35
2023-03-01T09:02:06.771Z,7.38
2023-03-01T09:04:35.660Z,7.41
2023-03-01T09:07:03.839Z,7.43
2023-03-01T09:09:32.403Z,7.49
2023-03-01T09:12:01.144Z,7.44
2023-03-01T09:14:29.778Z,7.40
2023-03-01T09:16:59.498Z,7.45
2023-03-01T09:19:27.852Z,7.43
2023-03-01T09:21:57.005Z,7.48
2023-03-01T09:24:26.762Z,7.40
2023-03-01T09:26:58.831Z,7.47
2023-03-01T09:29:30.589Z,7.49
2023-03-01T09:32:00.468Z,7.55
2023-03-01T09:34:28.818Z,7.58
2023-03-01T09:36:57.001Z,7.53
2023-03-01T09:39:25.088Z,7.56
2023-03-01T09:42:03.277Z,7.58
2023-03-01T09:44:40.270Z,7.66
2023-03-01T09:47:15.401Z,7.53
2023-03-01T09:49:49.767Z,7.28
2023-03-01T09:52:29.321Z,7.19
2023-03-01T09:55:00.710Z,7.08
2023-03-01T09:57:36.342Z,7.01
2023-03-01T10:00:18.394Z,6.96
2023-03-01T10:02:52.043Z,6.97
2023-03-01T10:05:33.100Z,7.00
2023-03-01T10:08:17.145Z,7.04
2023-03-01T10:10:48.246Z,7.12
2023-03-01T10:13:20.063Z,7.21
2023-03-01T10:15:56.145Z,7.26
2023-03-01T10:18:29.077Z,7.28
2023-03-01T10:21:00.944Z,7.28
2023-03-01T10:23:32.730Z,7.32
2023-03-01T10:26:23.240Z,7.36
2023-03-01T10:29:03.366Z,7.49
2023-03-01T10:31:41.460Z,7.59
2023-03-01T10:34:29.206Z,7.65
2023-03-01T10:37:00.130Z,7.73
2023-03-01T10:39:28.927Z,7.86
2023-03-01T10:42:00.666Z,7.89
2023-03-01T10:44:52.885Z,7.94
2023-03-01T10:47:23.952Z,8.04
2023-03-01T10:49:59.464Z,8.25
2023-03-01T10:52:31.924Z,8.34
2023-03-01T10:55:03.300Z,8.39
2023-03-01T10:57:37.626Z,8.44
2023-03-01T11:00:23.644Z,8.48
2023-03-01T11:03:03.564Z,8.39
2023-03-01T11:05:34.756Z,8.32
2023-03-01T11:08:05.382Z,8.44
2023-03-01T11:10:35.740Z,8.51
2023-03-01T11:13:15.970Z,8.56
2023-03-01T11:15:45.214Z,8.55
2023-03-01T11:18:33.982Z,8.48
2023-03-01T11:21:12.029Z,8.40
2023-03-01T11:23:43.129Z,8.51
2023-03-01T11:26:13.047Z,8.57
2023-03-01T11:28:44.945Z,8.61
2023-03-01T11:31:14.153Z,8.57
2023-03-01T11:33:49.406Z,8.45
2023-03-01T11:36:29.161Z,8.42
2023-03-01T11:38:58.144Z,8.33
2023-03-01T11:41:28.735Z,8.33
2023-03-01T11:44:01.851Z,8.46
2023-03-01T11:46:53.617Z,8.56
2023-03-01T11:49:44.438Z,8.75
2023-03-01T11:52:24.680Z,8.94
2023-03-01T11:55:17.454Z,9.29
2023-03-01T11:57:58.302Z,9.47
2023-03-01T12:00:55.191Z,9.62
2023-03-01T12:03:33.786Z,9.72
2023-03-01T12:06:26.405Z,9.85
2023-03-01T12:09:05.135Z,9.92
2023-03-01T12:11:44.950Z,9.92
2023-03-01T12:14:37.355Z,9.85
2023-03-01T12:17:22.980Z,9.81
2023-03-01T12:20:15.380Z,9.85
2023-03-01T12:22:57.149Z,9.92
2023-03-01T12:25:33.390Z,10.15
2023-03-01T12:28:41.065Z,10.18
2023-03-01T12:31:48.411Z,10.29
2023-03-01T12:34:36.087Z,10.29
2023-03-01T12:37:24.153Z,10.30
2023-03-01T12:40:05.840Z,10.35
2023-03-01T12:42:48.516Z,10.35
2023-03-01T12:45:37.131Z,10.35
2023-03-01T12:48:18.411Z,10.30
2023-03-01T12:50:51.366Z,10.29
2023-03-01T12:53:26.278Z,10.26
2023-03-01T12:55:57.331Z,10.08
2023-03-01T12:58:50.168Z,9.90
2023-03-01T13:01:28.322Z,9.82
2023-03-01T13:04:12.374Z,9.92
2023-03-01T13:06:46.341Z,10.08
2023-03-01T13:09:25.495Z,10.07
2023-03-01T13:11:53.855Z,10.10
2023-03-01T13:14:55.885Z,10.09
2023-03-01T13:17:36.809Z,10.01
2023-03-01T13:20:14.021Z,9.85
2023-03-01T13:22:54.380Z,9.62
2023-03-01T13:25:27.571Z,9.57
2023-03-01T13:28:32.406Z,9.46
2023-03-01T13:31:02.897Z,9.51
2023-03-01T13:33:48.344Z,9.53
2023-03-01T13:36:50.520Z,9.46
2023-03-01T13:39:36.710Z,9.56
2023-03-01T13:42:05.120Z,9.61
2023-03-01T13:44:39.966Z,9.63
2023-03-01T13:47:18.871Z,9.58
2023-03-01T13:49:51.741Z,9.44
2023-03-01T13:52:38.044Z,9.46
2023-03-01T13:55:16.205Z,9.57
2023-03-01T13:57:47.841Z,9.45
2023-03-01T14:00:31.856Z,9.43
2023-03-01T14:03:07.971Z,9.32
2023-03-01T14:05:37.214Z,9.20
2023-03-01T14:08:05.670Z,9.13
2023-03-01T14:10:43.118Z,9.19
2023-03-01T14:13:27.467Z,9.16
2023-03-01T14:16:11.321Z,9.32
2023-03-01T14:18:50.354Z,9.32
2023-03-01T14:21:18.862Z,9.26
2023-03-01T14:23:48.231Z,9.28
2023-03-01T14:26:23.173Z,9.32
2023-03-01T14:28:52.968Z,9.31
2023-03-01T14:31:47.168Z,9.32
2023-03-01T14:34:23.837Z,9.34
2023-03-01T14:36:51.818Z,9.45
2023-03-01T14:39:22.526Z,9.51
2023-03-01T14:41:50.904Z,9.56
2023-03-01T14:44:25.658Z,9.45
2023-03-01T14:46:58.370Z,9.27
2023-03-01T14:49:31.969Z,9.17
2023-03-01T14:52:04.328Z,9.12
2023-03-01T14:54:44.374Z,9.03
2023-03-01T14:57:17.021Z,8.92
2023-03-01T14:59:46.129Z,8.89
2023-03-01T15:02:18.530Z,8.87
2023-03-01T15:04:51.023Z,8.83
2023-03-01T15:07:20.119Z,8.79
2023-03-01T15:09:48.696Z,8.77
2023-03-01T15:12:40.581Z,8.71
2023-03-01T15:15:36.157Z,8.61
2023-03-01T15:18:07.857Z,8.55
2023-03-01T15:20:37.683Z,8.54
2023-03-01T15:23:06.312Z,8.54
2023-03-01T15:25:35.677Z,8.56
2023-03-01T15:28:04.868Z,8.57
2023-03-01T15:30:38.868Z,8.56
2023-03-01T15:33:21.945Z,8.56
2023-03-01T15:35:54.978Z,8.57
2023-03-01T15:38:33.007Z,8.50
2023-03-01T15:41:02.693Z,8.42
2023-03-01T15:43:43.449Z,8.37
2023-03-01T15:46:26.238Z,8.32
2023-03-01T15:48:57.664Z,8.28
2023-03-01T15:51:31.916Z,8.27
2023-03-01T15:54:03.685Z,8.20
2023-03-01T15:56:31.939Z,8.20
2023-03-01T15:59:02.413Z,8.24
2023-03-01T16:01:33.138Z,8.29
2023-03-01T16:04:02.549Z,8.33
2023-03-01T16:06:32.830Z,8.36
2023-03-01T16:09:01.170Z,8.37
2023-03-01T16:11:29.433Z,8.35
2023-03-01T16:13:57.687Z,8.33
2023-03-01T16:16:26.018Z,8.34
2023-03-01T16:18:55.655Z,8.31
2023-03-01T16:21:27.025Z,8.33
2023-03-01T16:23:56.475Z,8.37
2023-03-01T16:26:24.657Z,8.39
2023-03-01T16:28:56.428Z,8.41
2023-03-01T16:31:27.567Z,8.44
2023-03-01T16:33:56.164Z,8.49
2023-03-01T16:36:29.156Z,8.48
2023-03-01T16:39:01.567Z,8.54
2023-03-01T16:41:30.674Z,8.51
2023-03-01T16:43:59.375Z,8.52
2023-03-01T16:46:29.871Z,8.51
2023-03-01T16:48:58.485Z,8.43
2023-03-01T16:51:26.743Z,8.42
2023-03-01T16:53:55.400Z,8.42
2023-03-01T16:56:24.963Z,8.39
2023-03-01T16:58:53.097Z,8.36
2023-03-01T17:01:25.543Z,8.36
2023-03-01T17:03:54.463Z,8.31
2023-03-01T17:06:25.855Z,8.27
2023-03-01T17:08:53.831Z,8.23
2023-03-01T17:11:22.706Z,8.18
2023-03-01T17:13:52.420Z,8.18
2023-03-01T17:16:21.831Z,8.11
2023-03-01T17:18:50.890Z,8.05
2023-03-01T17:21:19.392Z,8.05
2023-03-01T17:23:50.414Z,8.00
2023-03-01T17:26:18.840Z,8.00
2023-03-01T17:28:52.506Z,8.00
2023-03-01T17:31:23.272Z,7.99
2023-03-01T17:33:52.397Z,7.96
2023-03-01T17:36:20.807Z,7.94
2023-03-01T17:38:49.447Z,7.93
2023-03-01T17:41:18.978Z,7.94
2023-03-01T17:43:47.706Z,7.94
2023-03-01T17:46:16.294Z,7.96
2023-03-01T17:48:45.861Z,7.93
2023-03-01T17:51:14.182Z,7.95
2023-03-01T17:53:42.917Z,7.92
2023-03-01T17:56:11.697Z,7.93
2023-03-01T17:58:40.585Z,7.91
2023-03-01T18:01:10.751Z,7.94
2023-03-01T18:03:38.954Z,7.88
2023-03-01T18:06:15.195Z,7.89
2023-03-01T18:08:45.285Z,7.89
2023-03-01T18:11:14.499Z,7.90
2023-03-01T18:13:42.771Z,7.89
2023-03-01T18:16:13.660Z,7.86
2023-03-01T18:18:42.859Z,7.84
2023-03-01T18:21:11.122Z,7.86
2023-03-01T18:23:40.996Z,7.86
2023-03-01T18:26:12.206Z,7.82
2023-03-01T18:28:40.921Z,7.85
2023-03-01T18:31:12.198Z,7.90
2023-03-01T18:33:41.483Z,7.94
2023-03-01T18:36:19.540Z,7.96
2023-03-01T18:38:49.363Z,7.95
2023-03-01T18:41:18.123Z,7.94
2023-03-01T18:43:46.400Z,7.95
2023-03-01T18:46:14.642Z,7.91
2023-03-01T18:48:42.757Z,7.93
2023-03-01T18:51:12.726Z,7.94
2023-03-01T18:53:41.087Z,7.93
2023-03-01T18:56:11.830Z,7.95
2023-03-01T18:58:40.445Z,7.97
2023-03-01T19:01:15.069Z,7.97
2023-03-01T19:03:43.258Z,8.00
2023-03-01T19:06:11.416Z,8.01
2023-03-01T19:08:40.879Z,7.99
2023-03-01T19:11:10.810Z,8.02
2023-03-01T19:13:40.957Z,8.00
2023-03-01T19:16:11.161Z,7.99
2023-03-01T19:18:41.373Z,8.01
2023-03-01T19:21:12.015Z,8.03
2023-03-01T19:23:40.456Z,8.05
2023-03-01T19:26:12.431Z,8.10
2023-03-01T19:28:41.330Z,8.05
2023-03-01T19:31:13.046Z,8.06
2023-03-01T19:33:42.053Z,8.15
2023-03-01T19:36:12.529Z,8.16
2023-03-01T19:38:42.143Z,8.14
2023-03-01T19:41:15.709Z,8.14
2023-03-01T19:43:44.916Z,8.13
2023-03-01T19:46:13.648Z,8.09
2023-03-01T19:48:44.601Z,8.11
2023-03-01T19:51:13.251Z,8.12
2023-03-01T19:53:42.083Z,8.12
2023-03-01T19:56:12.042Z,8.08
2023-03-01T19:58:41.076Z,8.09
2023-03-01T20:01:16.854Z,8.09
2023-03-01T20:03:45.285Z,8.10
2023-03-01T20:06:15.379Z,8.10
2023-03-01T20:08:44.805Z,8.12
2023-03-01T20:11:16.244Z,8.11
2023-03-01T20:13:44.598Z,8.10
2023-03-01T20:16:14.015Z,8.11
2023-03-01T20:18:42.239Z,8.10
2023-03-01T20:21:22.851Z,8.11
2023-03-01T20:23:51.769Z,8.11
2023-03-01T20:26:22.730Z,8.08
2023-03-01T20:28:52.929Z,8.11
2023-03-01T20:31:23.074Z,8.11
2023-03-01T20:33:51.245Z,8.11
2023-03-01T20:36:19.530Z,8.10
2023-03-01T20:38:47.724Z,8.13
2023-03-01T20:41:18.604Z,8.16
2023-03-01T20:43:54.441Z,8.18
2023-03-01T20:46:24.162Z,8.20
2023-03-01T20:48:52.854Z,8.19
2023-03-01T20:51:21.907Z,8.19
2023-03-01T20:53:50.652Z,8.20
2023-03-01T20:56:20.361Z,8.21
2023-03-01T20:58:49.962Z,8.24
2023-03-01T21:01:21.194Z,8.22
2023-03-01T21:03:49.429Z,8.24
2023-03-01T21:06:17.896Z,8.19
2023-03-01T21:08:46.130Z,8.21
2023-03-01T21:11:16.151Z,8.16
2023-03-01T21:13:44.867Z,8.18
2023-03-01T21:16:15.388Z,8.14
2023-03-01T21:18:43.714Z,8.16
2023-03-01T21:21:14.050Z,8.17
2023-03-01T21:23:43.184Z,8.13
2023-03-01T21:26:13.718Z,8.13
2023-03-01T21:28:43.812Z,8.14
2023-03-01T21:31:13.948Z,8.11
2023-03-01T21:33:46.524Z,8.09
2023-03-01T21:36:15.656Z,8.07
2023-03-01T21:38:46.396Z,8.05
2023-03-01T21:41:16.683Z,8.09
2023-03-01T21:43:46.393Z,8.07
2023-03-01T21:46:16.650Z,8.04
2023-03-01T21:48:47.898Z,8.02
2023-03-01T21:51:18.216Z,8.04
2023-03-01T21:53:46.521Z,8.02
2023-03-01T21:56:18.144Z,8.01
2023-03-01T21:58:46.301Z,7.99
2023-03-01T22:01:16.595Z,7.97
2023-03-01T22:03:47.244Z,7.96
2023-03-01T22:06:19.596Z,7.96
2023-03-01T22:08:48.970Z,7.92
2023-03-01T22:11:18.439Z,7.97
2023-03-01T22:13:47.696Z,7.97
2023-03-01T22:16:16.081Z,7.95
2023-03-01T22:18:44.376Z,7.93
2023-03-01T22:21:14.470Z,7.96
2023-03-01T22:23:43.223Z,7.96
2023-03-01T22:26:23.497Z,7.93
2023-03-01T22:28:51.886Z,7.92
2023-03-01T22:31:20.218Z,7.94
2023-03-01T22:33:48.448Z,7.94
2023-03-01T22:36:18.341Z,7.94
2023-03-01T22:38:46.644Z,7.89
2023-03-01T22:41:15.254Z,7.92
2023-03-01T22:43:43.642Z,7.92
2023-03-01T22:46:13.485Z,7.94
2023-03-01T22:48:41.894Z,7.92
2023-03-01T22:51:15.787Z,7.88
2023-03-01T22:53:45.606Z,7.89
2023-03-01T22:56:16.030Z,7.88
2023-03-01T22:58:44.587Z,7.85
2023-03-01T23:01:14.757Z,7.86
2023-03-01T23:03:43.043Z,7.88
2023-03-01T23:06:11.724Z,7.87
2023-03-01T23:08:40.159Z,7.81
2023-03-01T23:11:17.418Z,7.83
2023-03-01T23:13:45.694Z,7.82
2023-03-01T23:16:14.594Z,7.81
2023-03-01T23:18:42.982Z,7.79
2023-03-01T23:21:13.447Z,7.74
2023-03-01T23:23:42.004Z,7.71
2023-03-01T23:26:11.878Z,7.74
2023-03-01T23:28:41.171Z,7.70
2023-03-01T23:31:13.855Z,7.71
2023-03-01T23:33:44.576Z,7.69
2023-03-01T23:36:19.420Z,7.68
2023-03-01T23:38:48.092Z,7.69
2023-03-01T23:41:19.088Z,7.68
2023-03-01T23:43:47.590Z,7.68
2023-03-01T23:46:16.677Z,7.67
2023-03-01T23:48:45.850Z,7.69
2023-03-01T23:51:16.074Z,7.66
2023-03-01T23:53:54.937Z,7.64
2023-03-01T23:56:27.055Z,7.62
2023-03-01T23:58:56.029Z,7.64
